sensor_id;sensor_type;location;lat;lon;timestamp;temperature;humidity
584;HTU21D;27024;54.068;12.116;2022-12-28T00:01:24;3.44;114.51
584;HTU21D;27024;54.068;12.116;2022-12-28T00:03:52;3.49;114.33
584;HTU21D;27024;54.068;12.116;2022-12-28T00:06:44;3.54;114.33
584;HTU21D;27024;54.068;12.116;2022-12-28T00:09:13;3.54;114.33
584;HTU21D;27024;54.068;12.116;2022-12-28T00:11:40;3.64;114.18
584;HTU21D;27024;54.068;12.116;2022-12-28T00:14:07;3.68;114.19
584;HTU21D;27024;54.068;12.116;2022-12-28T00:16:35;3.68;114.25
584;HTU21D;27024;54.068;12.116;2022-12-28T00:19:05;3.73;113.95
584;HTU21D;27024;54.068;12.116;2022-12-28T00:21:33;3.77;113.91
584;HTU21D;27024;54.068;12.116;2022-12-28T00:24:00;3.82;113.69
584;HTU21D;27024;54.068;12.116;2022-12-28T00:26:30;3.86;113.70
584;HTU21D;27024;54.068;12.116;2022-12-28T00:28:57;3.87;113.43
584;HTU21D;27024;54.068;12.116;2022-12-28T00:31:30;3.92;113.22
584;HTU21D;27024;54.068;12.116;2022-12-28T00:33:57;3.92;113.23
584;HTU21D;27024;54.068;12.116;2022-12-28T00:36:25;3.92;113.28
584;HTU21D;27024;54.068;12.116;2022-12-28T00:39:11;3.99;113.09
584;HTU21D;27024;54.068;12.116;2022-12-28T00:41:38;4.04;112.71
584;HTU21D;27024;54.068;12.116;2022-12-28T00:44:05;4.02;112.62
584;HTU21D;27024;54.068;12.116;2022-12-28T00:46:32;4.07;112.48
584;HTU21D;27024;54.068;12.116;2022-12-28T00:48:59;4.09;112.42
584;HTU21D;27024;54.068;12.116;2022-12-28T00:51:27;4.18;112.16
584;HTU21D;27024;54.068;12.116;2022-12-28T00:53:54;4.18;112.10
584;HTU21D;27024;54.068;12.116;2022-12-28T00:56:21;4.17;112.17
584;HTU21D;27024;54.068;12.116;2022-12-28T00:58:49;4.29;111.86
584;HTU21D;27024;54.068;12.116;2022-12-28T01:01:18;4.28;111.61
584;HTU21D;27024;54.068;12.116;2022-12-28T01:03:47;4.27;111.59
584;HTU21D;27024;54.068;12.116;2022-12-28T01:06:18;4.28;111.71
584;HTU21D;27024;54.068;12.116;2022-12-28T01:08:45;4.34;111.32
584;HTU21D;27024;54.068;12.116;2022-12-28T01:13:42;4.33;111.38
584;HTU21D;27024;54.068;12.116;2022-12-28T01:16:14;4.37;111.38
584;HTU21D;27024;54.068;12.116;2022-12-28T01:18:42;4.42;111.26
584;HTU21D;27024;54.068;12.116;2022-12-28T01:21:22;4.39;111.32
584;HTU21D;27024;54.068;12.116;2022-12-28T01:23:53;4.45;111.34
584;HTU21D;27024;54.068;12.116;2022-12-28T01:26:21;4.47;111.42
584;HTU21D;27024;54.068;12.116;2022-12-28T01:28:48;4.54;111.40
584;HTU21D;27024;54.068;12.116;2022-12-28T01:31:16;4.53;111.39
584;HTU21D;27024;54.068;12.116;2022-12-28T01:33:44;4.59;111.21
584;HTU21D;27024;54.068;12.116;2022-12-28T01:36:23;4.63;111.11
584;HTU21D;27024;54.068;12.116;2022-12-28T01:38:53;4.61;111.06
584;HTU21D;27024;54.068;12.116;2022-12-28T01:41:21;4.60;111.02
584;HTU21D;27024;54.068;12.116;2022-12-28T01:46:29;4.69;110.65
584;HTU21D;27024;54.068;12.116;2022-12-28T01:49:05;4.71;110.58
584;HTU21D;27024;54.068;12.116;2022-12-28T01:51:40;4.73;110.42
584;HTU21D;27024;54.068;12.116;2022-12-28T01:54:08;4.76;109.97
584;HTU21D;27024;54.068;12.116;2022-12-28T01:56:35;4.78;110.00
584;HTU21D;27024;54.068;12.116;2022-12-28T01:59:02;4.75;110.16
584;HTU21D;27024;54.068;12.116;2022-12-28T02:01:29;4.80;109.81
584;HTU21D;27024;54.068;12.116;2022-12-28T02:03:56;4.77;109.95
584;HTU21D;27024;54.068;12.116;2022-12-28T02:06:23;4.78;109.82
584;HTU21D;27024;54.068;12.116;2022-12-28T02:09:02;4.81;109.78
584;HTU21D;27024;54.068;12.116;2022-12-28T02:11:30;4.80;109.65
584;HTU21D;27024;54.068;12.116;2022-12-28T02:13:58;4.79;109.55
584;HTU21D;27024;54.068;12.116;2022-12-28T02:16:26;4.90;109.31
584;HTU21D;27024;54.068;12.116;2022-12-28T02:18:53;4.90;108.88
584;HTU21D;27024;54.068;12.116;2022-12-28T02:29:36;4.93;108.71
584;HTU21D;27024;54.068;12.116;2022-12-28T02:35:16;4.93;108.53
584;HTU21D;27024;54.068;12.116;2022-12-28T02:37:47;4.95;108.48
584;HTU21D;27024;54.068;12.116;2022-12-28T02:40:21;4.97;108.07
584;HTU21D;27024;54.068;12.116;2022-12-28T02:42:52;4.96;107.99
584;HTU21D;27024;54.068;12.116;2022-12-28T02:45:52;5.04;107.14
584;HTU21D;27024;54.068;12.116;2022-12-28T02:48:43;5.10;106.79
584;HTU21D;27024;54.068;12.116;2022-12-28T03:01:09;5.08;106.26
584;HTU21D;27024;54.068;12.116;2022-12-28T03:03:56;5.09;106.22
584;HTU21D;27024;54.068;12.116;2022-12-28T03:12:07;5.05;105.96
584;HTU21D;27024;54.068;12.116;2022-12-28T03:14:45;5.07;105.74
584;HTU21D;27024;54.068;12.116;2022-12-28T03:17:13;5.05;105.68
584;HTU21D;27024;54.068;12.116;2022-12-28T03:20:05;5.08;105.27
584;HTU21D;27024;54.068;12.116;2022-12-28T03:22:53;5.10;104.98
584;HTU21D;27024;54.068;12.116;2022-12-28T03:25:43;5.07;105.14
584;HTU21D;27024;54.068;12.116;2022-12-28T03:28:30;5.03;105.23
584;HTU21D;27024;54.068;12.116;2022-12-28T03:31:19;5.06;104.94
584;HTU21D;27024;54.068;12.116;2022-12-28T03:33:49;5.03;105.06
584;HTU21D;27024;54.068;12.116;2022-12-28T03:39:38;5.03;104.34
584;HTU21D;27024;54.068;12.116;2022-12-28T03:42:24;5.06;103.58
584;HTU21D;27024;54.068;12.116;2022-12-28T03:45:34;5.04;104.21
584;HTU21D;27024;54.068;12.116;2022-12-28T03:48:14;5.08;103.99
584;HTU21D;27024;54.068;12.116;2022-12-28T03:50:43;5.07;103.86
584;HTU21D;27024;54.068;12.116;2022-12-28T03:53:11;5.03;103.94
584;HTU21D;27024;54.068;12.116;2022-12-28T03:55:38;5.00;103.76
584;HTU21D;27024;54.068;12.116;2022-12-28T03:58:06;5.01;103.73
584;HTU21D;27024;54.068;12.116;2022-12-28T04:00:33;5.03;103.46
584;HTU21D;27024;54.068;12.116;2022-12-28T04:03:00;5.01;103.78
584;HTU21D;27024;54.068;12.116;2022-12-28T04:05:27;4.93;104.10
584;HTU21D;27024;54.068;12.116;2022-12-28T04:07:54;5.00;103.83
584;HTU21D;27024;54.068;12.116;2022-12-28T04:10:21;5.00;103.66
584;HTU21D;27024;54.068;12.116;2022-12-28T04:12:48;4.96;103.92
584;HTU21D;27024;54.068;12.116;2022-12-28T04:15:14;4.93;104.12
584;HTU21D;27024;54.068;12.116;2022-12-28T04:17:41;4.96;103.90
584;HTU21D;27024;54.068;12.116;2022-12-28T04:20:08;4.93;103.83
584;HTU21D;27024;54.068;12.116;2022-12-28T04:22:35;4.89;104.39
584;HTU21D;27024;54.068;12.116;2022-12-28T04:25:02;4.89;105.22
584;HTU21D;27024;54.068;12.116;2022-12-28T04:27:29;4.79;106.27
584;HTU21D;27024;54.068;12.116;2022-12-28T04:29:55;4.77;106.91
584;HTU21D;27024;54.068;12.116;2022-12-28T04:32:22;4.79;107.17
584;HTU21D;27024;54.068;12.116;2022-12-28T04:34:49;4.78;107.28
584;HTU21D;27024;54.068;12.116;2022-12-28T04:37:16;4.72;107.66
584;HTU21D;27024;54.068;12.116;2022-12-28T04:39:42;4.72;107.22
584;HTU21D;27024;54.068;12.116;2022-12-28T04:42:24;4.74;107.56
584;HTU21D;27024;54.068;12.116;2022-12-28T04:44:51;4.68;107.30
584;HTU21D;27024;54.068;12.116;2022-12-28T04:47:18;4.63;107.83
584;HTU21D;27024;54.068;12.116;2022-12-28T04:49:44;4.60;108.08
584;HTU21D;27024;54.068;12.116;2022-12-28T04:52:12;4.54;108.71
584;HTU21D;27024;54.068;12.116;2022-12-28T04:54:39;4.51;109.04
584;HTU21D;27024;54.068;12.116;2022-12-28T04:57:05;4.54;109.02
584;HTU21D;27024;54.068;12.116;2022-12-28T04:59:32;4.52;108.87
584;HTU21D;27024;54.068;12.116;2022-12-28T05:01:59;4.48;108.92
584;HTU21D;27024;54.068;12.116;2022-12-28T05:04:26;4.50;108.71
584;HTU21D;27024;54.068;12.116;2022-12-28T05:06:53;4.43;109.34
584;HTU21D;27024;54.068;12.116;2022-12-28T05:09:20;4.46;109.52
584;HTU21D;27024;54.068;12.116;2022-12-28T05:11:47;4.45;109.10
584;HTU21D;27024;54.068;12.116;2022-12-28T05:14:14;4.41;109.79
584;HTU21D;27024;54.068;12.116;2022-12-28T05:16:41;4.39;110.02
584;HTU21D;27024;54.068;12.116;2022-12-28T05:19:08;4.38;110.49
584;HTU21D;27024;54.068;12.116;2022-12-28T05:21:35;4.32;111.07
584;HTU21D;27024;54.068;12.116;2022-12-28T05:24:02;4.36;110.29
584;HTU21D;27024;54.068;12.116;2022-12-28T05:26:29;4.31;110.73
584;HTU21D;27024;54.068;12.116;2022-12-28T05:28:56;4.32;111.00
584;HTU21D;27024;54.068;12.116;2022-12-28T05:31:25;4.33;111.15
584;HTU21D;27024;54.068;12.116;2022-12-28T05:33:53;4.29;111.49
584;HTU21D;27024;54.068;12.116;2022-12-28T05:36:22;4.29;111.90
584;HTU21D;27024;54.068;12.116;2022-12-28T05:38:49;4.32;111.64
584;HTU21D;27024;54.068;12.116;2022-12-28T05:41:22;4.33;111.61
584;HTU21D;27024;54.068;12.116;2022-12-28T05:43:50;4.32;112.16
584;HTU21D;27024;54.068;12.116;2022-12-28T05:46:28;4.32;112.35
584;HTU21D;27024;54.068;12.116;2022-12-28T05:48:56;4.31;111.86
584;HTU21D;27024;54.068;12.116;2022-12-28T05:51:26;4.34;111.83
584;HTU21D;27024;54.068;12.116;2022-12-28T05:53:53;4.29;112.42
584;HTU21D;27024;54.068;12.116;2022-12-28T05:56:23;4.30;112.57
584;HTU21D;27024;54.068;12.116;2022-12-28T05:58:58;4.28;112.93
584;HTU21D;27024;54.068;12.116;2022-12-28T06:01:28;4.27;112.79
584;HTU21D;27024;54.068;12.116;2022-12-28T06:04:05;4.32;112.78
584;HTU21D;27024;54.068;12.116;2022-12-28T06:06:32;4.34;112.60
584;HTU21D;27024;54.068;12.116;2022-12-28T06:09:01;4.29;112.84
584;HTU21D;27024;54.068;12.116;2022-12-28T06:11:28;4.28;112.88
584;HTU21D;27024;54.068;12.116;2022-12-28T06:13:57;4.28;112.83
584;HTU21D;27024;54.068;12.116;2022-12-28T06:16:29;4.27;113.15
584;HTU21D;27024;54.068;12.116;2022-12-28T06:18:57;4.32;113.00
584;HTU21D;27024;54.068;12.116;2022-12-28T06:21:27;4.31;113.32
584;HTU21D;27024;54.068;12.116;2022-12-28T06:23:56;4.29;113.24
584;HTU21D;27024;54.068;12.116;2022-12-28T06:26:24;4.33;113.00
584;HTU21D;27024;54.068;12.116;2022-12-28T06:28:51;4.29;113.54
584;HTU21D;27024;54.068;12.116;2022-12-28T06:31:23;4.31;113.03
584;HTU21D;27024;54.068;12.116;2022-12-28T06:33:52;4.34;113.06
584;HTU21D;27024;54.068;12.116;2022-12-28T06:36:22;4.34;113.04
584;HTU21D;27024;54.068;12.116;2022-12-28T06:38:51;4.36;113.03
584;HTU21D;27024;54.068;12.116;2022-12-28T06:41:21;4.35;113.29
584;HTU21D;27024;54.068;12.116;2022-12-28T06:43:48;4.33;113.14
584;HTU21D;27024;54.068;12.116;2022-12-28T06:46:17;4.36;113.28
584;HTU21D;27024;54.068;12.116;2022-12-28T06:48:45;4.35;113.31
584;HTU21D;27024;54.068;12.116;2022-12-28T06:51:12;4.41;113.26
584;HTU21D;27024;54.068;12.116;2022-12-28T06:53:40;4.42;113.38
584;HTU21D;27024;54.068;12.116;2022-12-28T06:56:13;4.37;113.69
584;HTU21D;27024;54.068;12.116;2022-12-28T06:58:41;4.36;113.87
584;HTU21D;27024;54.068;12.116;2022-12-28T07:01:10;4.37;114.01
584;HTU21D;27024;54.068;12.116;2022-12-28T07:03:38;4.42;113.49
584;HTU21D;27024;54.068;12.116;2022-12-28T07:06:05;4.37;113.98
584;HTU21D;27024;54.068;12.116;2022-12-28T07:08:32;4.34;114.13
584;HTU21D;27024;54.068;12.116;2022-12-28T07:11:11;4.37;114.34
584;HTU21D;27024;54.068;12.116;2022-12-28T07:13:38;4.33;114.67
584;HTU21D;27024;54.068;12.116;2022-12-28T07:16:16;4.35;114.93
584;HTU21D;27024;54.068;12.116;2022-12-28T07:18:44;4.35;115.31
584;HTU21D;27024;54.068;12.116;2022-12-28T07:21:13;4.37;115.12
584;HTU21D;27024;54.068;12.116;2022-12-28T07:23:41;4.41;115.06
584;HTU21D;27024;54.068;12.116;2022-12-28T07:26:13;4.42;115.54
584;HTU21D;27024;54.068;12.116;2022-12-28T07:28:43;4.47;115.49
584;HTU21D;27024;54.068;12.116;2022-12-28T07:31:13;4.47;115.54
584;HTU21D;27024;54.068;12.116;2022-12-28T07:33:40;4.44;115.99
584;HTU21D;27024;54.068;12.116;2022-12-28T07:36:09;4.45;116.46
584;HTU21D;27024;54.068;12.116;2022-12-28T07:38:37;4.39;116.99
584;HTU21D;27024;54.068;12.116;2022-12-28T07:41:10;4.37;117.31
584;HTU21D;27024;54.068;12.116;2022-12-28T07:43:38;4.37;117.58
584;HTU21D;27024;54.068;12.116;2022-12-28T07:46:07;4.36;117.76
584;HTU21D;27024;54.068;12.116;2022-12-28T07:48:36;4.36;117.65
584;HTU21D;27024;54.068;12.116;2022-12-28T07:51:06;4.38;117.79
584;HTU21D;27024;54.068;12.116;2022-12-28T07:53:34;4.41;117.83
584;HTU21D;27024;54.068;12.116;2022-12-28T07:56:00;4.44;117.78
584;HTU21D;27024;54.068;12.116;2022-12-28T07:58:27;4.46;117.54
584;HTU21D;27024;54.068;12.116;2022-12-28T08:01:23;4.49;117.64
584;HTU21D;27024;54.068;12.116;2022-12-28T08:03:52;4.47;117.47
584;HTU21D;27024;54.068;12.116;2022-12-28T08:06:21;4.48;117.62
584;HTU21D;27024;54.068;12.116;2022-12-28T08:08:53;4.57;117.71
584;HTU21D;27024;54.068;12.116;2022-12-28T08:11:23;4.53;117.90
584;HTU21D;27024;54.068;12.116;2022-12-28T08:13:52;4.54;117.93
584;HTU21D;27024;54.068;12.116;2022-12-28T08:16:20;4.54;117.77
584;HTU21D;27024;54.068;12.116;2022-12-28T08:18:48;4.56;117.91
584;HTU21D;27024;54.068;12.116;2022-12-28T08:21:16;4.64;118.05
584;HTU21D;27024;54.068;12.116;2022-12-28T08:23:43;4.61;118.12
584;HTU21D;27024;54.068;12.116;2022-12-28T08:26:16;4.61;118.29
584;HTU21D;27024;54.068;12.116;2022-12-28T08:28:45;4.64;118.26
584;HTU21D;27024;54.068;12.116;2022-12-28T08:31:19;4.64;118.18
584;HTU21D;27024;54.068;12.116;2022-12-28T08:33:46;4.64;118.09
584;HTU21D;27024;54.068;12.116;2022-12-28T08:36:13;4.73;118.18
584;HTU21D;27024;54.068;12.116;2022-12-28T08:38:40;4.71;118.10
584;HTU21D;27024;54.068;12.116;2022-12-28T08:41:14;4.67;118.22
584;HTU21D;27024;54.068;12.116;2022-12-28T08:43:42;4.66;118.29
584;HTU21D;27024;54.068;12.116;2022-12-28T08:46:15;4.66;118.37
584;HTU21D;27024;54.068;12.116;2022-12-28T08:48:44;4.71;118.46
584;HTU21D;27024;54.068;12.116;2022-12-28T08:51:17;4.75;118.47
584;HTU21D;27024;54.068;12.116;2022-12-28T08:53:45;4.75;118.44
584;HTU21D;27024;54.068;12.116;2022-12-28T08:56:20;4.77;118.59
584;HTU21D;27024;54.068;12.116;2022-12-28T08:58:48;4.81;118.75
584;HTU21D;27024;54.068;12.116;2022-12-28T09:01:20;4.90;118.69
584;HTU21D;27024;54.068;12.116;2022-12-28T09:03:49;4.90;118.66
584;HTU21D;27024;54.068;12.116;2022-12-28T09:06:19;5.09;118.71
584;HTU21D;27024;54.068;12.116;2022-12-28T09:08:51;5.81;116.07
584;HTU21D;27024;54.068;12.116;2022-12-28T09:11:34;6.24;113.45
584;HTU21D;27024;54.068;12.116;2022-12-28T09:14:03;5.23;116.60
584;HTU21D;27024;54.068;12.116;2022-12-28T09:16:30;5.33;117.20
584;HTU21D;27024;54.068;12.116;2022-12-28T09:18:59;5.34;117.44
584;HTU21D;27024;54.068;12.116;2022-12-28T09:21:29;5.20;117.59
584;HTU21D;27024;54.068;12.116;2022-12-28T09:23:56;5.17;117.96
584;HTU21D;27024;54.068;12.116;2022-12-28T09:26:28;5.20;118.16
584;HTU21D;27024;54.068;12.116;2022-12-28T09:28:58;5.62;118.47
584;HTU21D;27024;54.068;12.116;2022-12-28T09:31:29;5.28;117.88
584;HTU21D;27024;54.068;12.116;2022-12-28T09:33:56;5.26;118.06
584;HTU21D;27024;54.068;12.116;2022-12-28T09:36:46;5.26;118.27
584;HTU21D;27024;54.068;12.116;2022-12-28T09:39:15;5.32;118.31
584;HTU21D;27024;54.068;12.116;2022-12-28T09:44:54;5.40;118.03
584;HTU21D;27024;54.068;12.116;2022-12-28T09:47:44;5.51;118.08
584;HTU21D;27024;54.068;12.116;2022-12-28T09:55:39;5.65;118.05
584;HTU21D;27024;54.068;12.116;2022-12-28T09:58:13;5.65;118.08
584;HTU21D;27024;54.068;12.116;2022-12-28T10:00:45;5.79;118.02
584;HTU21D;27024;54.068;12.116;2022-12-28T10:03:16;5.71;118.07
584;HTU21D;27024;54.068;12.116;2022-12-28T10:05:44;5.69;118.40
584;HTU21D;27024;54.068;12.116;2022-12-28T10:08:14;5.67;118.53
584;HTU21D;27024;54.068;12.116;2022-12-28T10:10:43;5.71;118.71
584;HTU21D;27024;54.068;12.116;2022-12-28T10:13:22;5.78;118.65
584;HTU21D;27024;54.068;12.116;2022-12-28T10:16:17;5.83;118.43
584;HTU21D;27024;54.068;12.116;2022-12-28T10:18:45;5.90;118.27
584;HTU21D;27024;54.068;12.116;2022-12-28T10:21:15;5.90;118.15
584;HTU21D;27024;54.068;12.116;2022-12-28T10:23:46;5.94;118.18
584;HTU21D;27024;54.068;12.116;2022-12-28T10:26:34;6.02;117.99
584;HTU21D;27024;54.068;12.116;2022-12-28T10:29:01;6.09;117.67
584;HTU21D;27024;54.068;12.116;2022-12-28T10:31:36;6.12;117.47
584;HTU21D;27024;54.068;12.116;2022-12-28T10:34:13;6.19;117.51
584;HTU21D;27024;54.068;12.116;2022-12-28T10:36:43;6.24;117.26
584;HTU21D;27024;54.068;12.116;2022-12-28T10:39:28;6.29;116.94
584;HTU21D;27024;54.068;12.116;2022-12-28T10:41:57;6.33;117.05
584;HTU21D;27024;54.068;12.116;2022-12-28T10:44:31;6.38;116.70
584;HTU21D;27024;54.068;12.116;2022-12-28T10:47:34;6.42;116.71
584;HTU21D;27024;54.068;12.116;2022-12-28T10:50:03;6.45;116.70
584;HTU21D;27024;54.068;12.116;2022-12-28T10:52:57;6.43;116.83
584;HTU21D;27024;54.068;12.116;2022-12-28T10:55:26;6.41;116.94
584;HTU21D;27024;54.068;12.116;2022-12-28T10:57:53;6.50;117.03
584;HTU21D;27024;54.068;12.116;2022-12-28T11:00:40;6.49;117.07
584;HTU21D;27024;54.068;12.116;2022-12-28T11:03:17;6.53;117.31
584;HTU21D;27024;54.068;12.116;2022-12-28T11:05:45;6.52;117.51
584;HTU21D;27024;54.068;12.116;2022-12-28T11:08:22;6.57;117.66
584;HTU21D;27024;54.068;12.116;2022-12-28T11:10:55;6.59;117.54
584;HTU21D;27024;54.068;12.116;2022-12-28T11:13:22;6.61;117.61
584;HTU21D;27024;54.068;12.116;2022-12-28T11:15:49;6.70;117.54
584;HTU21D;27024;54.068;12.116;2022-12-28T11:18:17;6.72;117.49
584;HTU21D;27024;54.068;12.116;2022-12-28T11:20:50;6.72;117.76
584;HTU21D;27024;54.068;12.116;2022-12-28T11:23:22;6.73;118.02
584;HTU21D;27024;54.068;12.116;2022-12-28T11:25:51;6.76;118.02
584;HTU21D;27024;54.068;12.116;2022-12-28T11:28:21;6.79;118.23
584;HTU21D;27024;54.068;12.116;2022-12-28T11:30:51;6.80;118.15
584;HTU21D;27024;54.068;12.116;2022-12-28T11:33:32;6.83;118.01
584;HTU21D;27024;54.068;12.116;2022-12-28T11:36:01;6.88;117.90
584;HTU21D;27024;54.068;12.116;2022-12-28T11:38:46;6.88;117.98
584;HTU21D;27024;54.068;12.116;2022-12-28T11:44:03;6.93;117.97
584;HTU21D;27024;54.068;12.116;2022-12-28T11:49:25;6.98;118.24
584;HTU21D;27024;54.068;12.116;2022-12-28T11:57:53;7.07;118.47
584;HTU21D;27024;54.068;12.116;2022-12-28T12:03:00;7.09;118.56
584;HTU21D;27024;54.068;12.116;2022-12-28T12:10:45;7.16;118.95
584;HTU21D;27024;54.068;12.116;2022-12-28T12:16:02;7.23;118.98
584;HTU21D;27024;54.068;12.116;2022-12-28T12:18:42;7.22;118.99
584;HTU21D;27024;54.068;12.116;2022-12-28T12:21:31;7.31;118.99
584;HTU21D;27024;54.068;12.116;2022-12-28T12:24:15;7.38;118.99
584;HTU21D;27024;54.068;12.116;2022-12-28T12:26:54;7.41;118.95
584;HTU21D;27024;54.068;12.116;2022-12-28T12:29:35;7.34;118.98
584;HTU21D;27024;54.068;12.116;2022-12-28T12:32:15;7.35;118.99
584;HTU21D;27024;54.068;12.116;2022-12-28T12:34:55;7.37;118.89
584;HTU21D;27024;54.068;12.116;2022-12-28T12:42:48;7.39;118.66
584;HTU21D;27024;54.068;12.116;2022-12-28T12:45:51;7.42;118.61
584;HTU21D;27024;54.068;12.116;2022-12-28T12:59:09;7.55;118.04
584;HTU21D;27024;54.068;12.116;2022-12-28T13:04:29;7.57;117.94
584;HTU21D;27024;54.068;12.116;2022-12-28T13:07:00;7.59;117.92
584;HTU21D;27024;54.068;12.116;2022-12-28T13:09:29;7.60;117.83
584;HTU21D;27024;54.068;12.116;2022-12-28T13:11:59;7.62;117.83
584;HTU21D;27024;54.068;12.116;2022-12-28T13:14:27;7.65;117.98
584;HTU21D;27024;54.068;12.116;2022-12-28T13:16:57;7.62;118.22
584;HTU21D;27024;54.068;12.116;2022-12-28T13:19:27;7.60;118.46
584;HTU21D;27024;54.068;12.116;2022-12-28T13:21:54;7.58;118.83
584;HTU21D;27024;54.068;12.116;2022-12-28T13:24:26;7.58;118.99
584;HTU21D;27024;54.068;12.116;2022-12-28T13:26:56;7.55;118.99
584;HTU21D;27024;54.068;12.116;2022-12-28T13:29:36;7.56;118.99
584;HTU21D;27024;54.068;12.116;2022-12-28T13:32:04;7.55;118.99
584;HTU21D;27024;54.068;12.116;2022-12-28T13:34:32;7.58;118.99
584;HTU21D;27024;54.068;12.116;2022-12-28T13:37:14;7.60;118.99
584;HTU21D;27024;54.068;12.116;2022-12-28T13:39:41;7.62;118.99
584;HTU21D;27024;54.068;12.116;2022-12-28T13:42:32;7.58;118.99
584;HTU21D;27024;54.068;12.116;2022-12-28T13:45:02;7.61;118.99
584;HTU21D;27024;54.068;12.116;2022-12-28T13:47:35;7.57;118.99
584;HTU21D;27024;54.068;12.116;2022-12-28T13:50:11;7.56;118.99
584;HTU21D;27024;54.068;12.116;2022-12-28T13:52:48;7.58;118.99
584;HTU21D;27024;54.068;12.116;2022-12-28T13:55:22;7.56;118.99
584;HTU21D;27024;54.068;12.116;2022-12-28T13:57:53;7.56;118.99
584;HTU21D;27024;54.068;12.116;2022-12-28T14:00:27;7.58;118.99
584;HTU21D;27024;54.068;12.116;2022-12-28T14:02:56;7.56;118.99
584;HTU21D;27024;54.068;12.116;2022-12-28T14:05:28;7.55;118.99
584;HTU21D;27024;54.068;12.116;2022-12-28T14:07:57;7.56;118.99
584;HTU21D;27024;54.068;12.116;2022-12-28T14:10:25;7.55;118.99
584;HTU21D;27024;54.068;12.116;2022-12-28T14:12:52;7.57;118.99
584;HTU21D;27024;54.068;12.116;2022-12-28T14:15:20;7.62;118.99
584;HTU21D;27024;54.068;12.116;2022-12-28T14:17:49;7.59;118.99
584;HTU21D;27024;54.068;12.116;2022-12-28T14:20:17;7.55;118.99
584;HTU21D;27024;54.068;12.116;2022-12-28T14:22:44;7.56;118.99
584;HTU21D;27024;54.068;12.116;2022-12-28T14:25:17;7.59;118.99
584;HTU21D;27024;54.068;12.116;2022-12-28T14:27:59;7.60;118.99
584;HTU21D;27024;54.068;12.116;2022-12-28T14:30:37;7.58;118.99
584;HTU21D;27024;54.068;12.116;2022-12-28T14:33:13;7.60;118.99
584;HTU21D;27024;54.068;12.116;2022-12-28T14:35:58;7.57;118.99
584;HTU21D;27024;54.068;12.116;2022-12-28T14:38:31;7.57;118.99
584;HTU21D;27024;54.068;12.116;2022-12-28T14:41:01;7.60;118.99
584;HTU21D;27024;54.068;12.116;2022-12-28T14:43:30;7.59;118.99
584;HTU21D;27024;54.068;12.116;2022-12-28T14:46:33;7.57;118.99
584;HTU21D;27024;54.068;12.116;2022-12-28T14:54:25;7.58;118.99
584;HTU21D;27024;54.068;12.116;2022-12-28T14:59:36;7.58;118.99
584;HTU21D;27024;54.068;12.116;2022-12-28T15:02:04;7.57;118.99
584;HTU21D;27024;54.068;12.116;2022-12-28T15:04:41;7.59;118.99
584;HTU21D;27024;54.068;12.116;2022-12-28T15:07:09;7.62;118.99
584;HTU21D;27024;54.068;12.116;2022-12-28T15:09:37;7.63;118.99
584;HTU21D;27024;54.068;12.116;2022-12-28T15:12:16;7.63;118.99
584;HTU21D;27024;54.068;12.116;2022-12-28T15:14:43;7.65;118.99
584;HTU21D;27024;54.068;12.116;2022-12-28T15:17:10;7.63;118.99
584;HTU21D;27024;54.068;12.116;2022-12-28T15:19:38;7.68;118.99
584;HTU21D;27024;54.068;12.116;2022-12-28T15:22:05;7.67;118.99
584;HTU21D;27024;54.068;12.116;2022-12-28T15:24:32;7.65;118.99
584;HTU21D;27024;54.068;12.116;2022-12-28T15:27:03;7.69;118.99
584;HTU21D;27024;54.068;12.116;2022-12-28T15:29:31;7.69;118.99
584;HTU21D;27024;54.068;12.116;2022-12-28T15:32:17;7.74;118.99
584;HTU21D;27024;54.068;12.116;2022-12-28T15:34:44;7.75;118.99
584;HTU21D;27024;54.068;12.116;2022-12-28T15:37:11;7.76;118.99
584;HTU21D;27024;54.068;12.116;2022-12-28T15:39:38;7.76;118.99
584;HTU21D;27024;54.068;12.116;2022-12-28T15:42:04;7.79;118.99
584;HTU21D;27024;54.068;12.116;2022-12-28T15:44:31;7.84;118.99
584;HTU21D;27024;54.068;12.116;2022-12-28T15:46:58;7.81;118.99
584;HTU21D;27024;54.068;12.116;2022-12-28T15:49:25;7.82;118.99
584;HTU21D;27024;54.068;12.116;2022-12-28T15:51:52;7.81;118.99
584;HTU21D;27024;54.068;12.116;2022-12-28T15:54:19;7.86;118.99
584;HTU21D;27024;54.068;12.116;2022-12-28T15:56:51;7.90;118.99
584;HTU21D;27024;54.068;12.116;2022-12-28T15:59:18;7.91;118.99
584;HTU21D;27024;54.068;12.116;2022-12-28T16:01:45;7.88;118.99
584;HTU21D;27024;54.068;12.116;2022-12-28T16:04:13;7.91;118.99
584;HTU21D;27024;54.068;12.116;2022-12-28T16:06:41;7.97;118.99
584;HTU21D;27024;54.068;12.116;2022-12-28T16:09:11;7.96;118.99
584;HTU21D;27024;54.068;12.116;2022-12-28T16:11:39;7.96;118.99
584;HTU21D;27024;54.068;12.116;2022-12-28T16:14:10;7.98;118.99
584;HTU21D;27024;54.068;12.116;2022-12-28T16:16:39;7.97;118.99
584;HTU21D;27024;54.068;12.116;2022-12-28T16:19:10;7.99;118.99
584;HTU21D;27024;54.068;12.116;2022-12-28T16:21:38;8.04;118.99
584;HTU21D;27024;54.068;12.116;2022-12-28T16:24:05;8.03;118.99
584;HTU21D;27024;54.068;12.116;2022-12-28T16:26:31;8.02;118.99
584;HTU21D;27024;54.068;12.116;2022-12-28T16:28:59;8.05;118.99
584;HTU21D;27024;54.068;12.116;2022-12-28T16:31:29;8.04;118.99
584;HTU21D;27024;54.068;12.116;2022-12-28T16:36:31;8.11;118.99
584;HTU21D;27024;54.068;12.116;2022-12-28T16:39:03;8.15;118.98
584;HTU21D;27024;54.068;12.116;2022-12-28T16:41:33;8.15;118.68
584;HTU21D;27024;54.068;12.116;2022-12-28T16:44:12;8.13;118.81
584;HTU21D;27024;54.068;12.116;2022-12-28T16:46:43;8.14;118.79
584;HTU21D;27024;54.068;12.116;2022-12-28T16:49:10;8.19;118.57
584;HTU21D;27024;54.068;12.116;2022-12-28T16:51:39;8.17;118.53
584;HTU21D;27024;54.068;12.116;2022-12-28T16:54:06;8.18;118.62
584;HTU21D;27024;54.068;12.116;2022-12-28T16:56:33;8.18;118.60
584;HTU21D;27024;54.068;12.116;2022-12-28T16:59:00;8.21;118.43
584;HTU21D;27024;54.068;12.116;2022-12-28T17:01:27;8.16;118.40
584;HTU21D;27024;54.068;12.116;2022-12-28T17:03:54;8.14;118.46
584;HTU21D;27024;54.068;12.116;2022-12-28T17:06:29;8.18;118.56
584;HTU21D;27024;54.068;12.116;2022-12-28T17:08:55;8.13;118.64
584;HTU21D;27024;54.068;12.116;2022-12-28T17:11:22;8.15;118.80
584;HTU21D;27024;54.068;12.116;2022-12-28T17:13:49;8.11;118.99
584;HTU21D;27024;54.068;12.116;2022-12-28T17:16:15;8.06;118.99
584;HTU21D;27024;54.068;12.116;2022-12-28T17:18:43;8.03;118.99
584;HTU21D;27024;54.068;12.116;2022-12-28T17:21:09;7.96;118.99
584;HTU21D;27024;54.068;12.116;2022-12-28T17:23:37;7.96;118.99
584;HTU21D;27024;54.068;12.116;2022-12-28T17:26:05;7.89;118.99
584;HTU21D;27024;54.068;12.116;2022-12-28T17:28:32;7.88;118.99
584;HTU21D;27024;54.068;12.116;2022-12-28T17:31:11;7.86;118.99